Time;durP1;ratioP1;P1;durP2;ratioP2;P2;SDS_P1;SDS_P2;PMS_P1;PMS_P2;Temp;Humidity;BMP_temperature;BMP_pressure;BME280_temperature;BME280_humidity;BME280_pressure;Samples;Min_cycle;Max_cycle;Signal;HPM_P1;HPM_P2
2023/05/01 00:02:22;;;;;;;6.63;4.75;;;12.30;99.90;;;;;;5078076;28;20025;-77
2023/05/01 00:04:47;;;;;;;8.02;5.22;;;12.30;99.90;;;;;;5073939;28;20032;-77
2023/05/01 00:07:13;;;;;;;7.38;4.50;;;12.20;99.90;;;;;;5074815;28;20055;-77
2023/05/01 00:09:38;;;;;;;8.13;4.43;;;12.20;99.90;;;;;;5074169;28;20319;-78
2023/05/01 00:12:04;;;;;;;6.93;4.75;;;12.20;99.90;;;;;;5073925;28;20107;-77
2023/05/01 00:14:30;;;;;;;6.70;4.50;;;12.20;99.90;;;;;;5075494;28;20017;-77
2023/05/01 00:16:55;;;;;;;7.85;4.93;;;12.10;99.90;;;;;;5073895;28;20029;-76
2023/05/01 00:19:21;;;;;;;6.30;4.38;;;12.00;99.90;;;;;;5074482;28;20075;-77
2023/05/01 00:21:47;;;;;;;6.22;4.60;;;12.00;99.90;;;;;;5073880;28;20064;-77
2023/05/01 00:24:15;;;;;;;10.23;4.60;;;12.00;99.90;;;;;;5075400;28;20085;-77
2023/05/01 00:26:41;;;;;;;5.72;4.53;;;12.00;99.90;;;;;;5075936;28;20078;-76
2023/05/01 00:29:07;;;;;;;6.68;4.80;;;11.90;99.90;;;;;;5075282;28;20420;-77
2023/05/01 00:31:33;;;;;;;7.55;5.30;;;11.90;99.90;;;;;;5074307;28;20135;-77
2023/05/01 00:33:58;;;;;;;8.32;5.15;;;12.00;99.90;;;;;;5073702;28;20463;-77
2023/05/01 00:36:24;;;;;;;6.35;4.53;;;12.00;99.90;;;;;;5057292;28;20405;-77
2023/05/01 00:38:50;;;;;;;8.13;5.00;;;12.00;99.90;;;;;;5073405;28;20078;-77
2023/05/01 00:41:15;;;;;;;5.97;4.65;;;12.10;99.90;;;;;;5075406;28;20028;-77
2023/05/01 00:43:41;;;;;;;6.75;4.65;;;12.10;99.90;;;;;;5057125;28;20457;-78
2023/05/01 00:46:07;;;;;;;9.73;4.80;;;12.10;99.90;;;;;;5074633;28;20165;-77
2023/05/01 00:48:33;;;;;;;7.60;4.70;;;12.10;99.90;;;;;;5074824;28;20025;-76
2023/05/01 00:51:00;;;;;;;8.48;5.03;;;12.10;99.90;;;;;;5056633;28;20511;-77
2023/05/01 00:53:27;;;;;;;7.07;4.78;;;12.10;99.90;;;;;;5074804;28;20021;-77
2023/05/01 00:55:55;;;;;;;7.47;5.20;;;12.10;99.90;;;;;;5073340;28;20376;-77
2023/05/01 00:58:21;;;;;;;7.80;4.95;;;12.10;99.90;;;;;;5057267;28;20089;-77
2023/05/01 01:00:47;;;;;;;6.68;4.90;;;12.20;99.90;;;;;;5074011;28;20412;-78
2023/05/01 01:03:13;;;;;;;6.45;4.60;;;12.10;99.90;;;;;;5056891;28;20365;-77
2023/05/01 01:05:50;;;;;;;7.25;4.32;;;12.20;99.90;;;;;;5074736;28;20024;-77
2023/05/01 01:08:32;;;;;;;7.07;4.78;;;12.20;99.90;;;;;;5056630;28;20034;-77
2023/05/01 01:11:07;;;;;;;7.30;4.97;;;12.20;99.90;;;;;;5074243;28;20041;-77
2023/05/01 01:13:44;;;;;;;7.65;4.53;;;12.20;99.90;;;;;;5074708;28;20021;-77
2023/05/01 01:16:29;;;;;;;6.60;4.38;;;12.20;99.90;;;;;;5056292;28;20139;-76
2023/05/01 01:19:04;;;;;;;5.75;4.35;;;12.30;99.90;;;;;;5073737;28;20036;-77
2023/05/01 01:21:33;;;;;;;8.57;4.25;;;12.20;99.90;;;;;;5074399;28;20029;-77
2023/05/01 01:24:46;;;;;;;8.25;4.30;;;12.30;99.90;;;;;;5056082;28;20098;-77
2023/05/01 01:27:23;;;;;;;8.50;4.63;;;12.20;99.90;;;;;;5049901;28;20036;-76
2023/05/01 01:30:11;;;;;;;5.45;4.15;;;12.20;99.90;;;;;;5055825;28;20048;-77
2023/05/01 01:33:01;;;;;;;6.72;4.43;;;12.30;99.90;;;;;;5074174;28;20056;-77
2023/05/01 01:35:29;;;;;;;6.78;4.60;;;12.20;99.90;;;;;;5073996;28;20458;-76
2023/05/01 01:37:58;;;;;;;7.32;4.60;;;12.20;99.90;;;;;;5055486;28;20036;-77
2023/05/01 01:40:37;;;;;;;5.47;4.22;;;12.30;99.90;;;;;;5055886;28;20028;-77
2023/05/01 01:43:07;;;;;;;5.90;4.18;;;12.30;99.90;;;;;;5071842;28;20446;-76
2023/05/01 01:45:39;;;;;;;6.85;4.65;;;12.30;99.90;;;;;;5056243;28;20025;-77
2023/05/01 01:48:11;;;;;;;7.53;4.40;;;12.30;99.90;;;;;;5073431;28;20031;-77
2023/05/01 01:50:38;;;;;;;7.13;4.63;;;12.30;99.90;;;;;;5056354;28;20113;-77
2023/05/01 01:53:07;;;;;;;6.13;4.50;;;12.20;99.90;;;;;;5073656;28;20029;-77
2023/05/01 01:55:34;;;;;;;6.50;4.75;;;12.30;99.90;;;;;;5073599;28;20075;-77
2023/05/01 01:58:02;;;;;;;7.00;4.70;;;12.30;99.90;;;;;;5055714;28;20029;-77
2023/05/01 02:00:29;;;;;;;7.50;4.32;;;12.30;99.90;;;;;;5041798;28;20478;-77
2023/05/01 02:02:56;;;;;;;5.85;4.43;;;12.20;99.90;;;;;;5052048;28;20482;-77
2023/05/01 02:05:23;;;;;;;6.53;4.45;;;12.20;99.90;;;;;;5053754;28;20027;-77
2023/05/01 02:07:50;;;;;;;6.05;4.38;;;12.20;99.90;;;;;;5052103;28;20170;-78
2023/05/01 02:10:17;;;;;;;5.20;4.35;;;12.30;99.90;;;;;;5053692;28;20029;-77
2023/05/01 02:12:46;;;;;;;6.20;4.57;;;12.30;99.90;;;;;;5052546;28;20025;-77
2023/05/01 02:15:14;;;;;;;4.95;4.20;;;12.30;99.90;;;;;;5051601;28;20032;-77
2023/05/01 02:17:40;;;;;;;7.25;4.53;;;12.30;99.90;;;;;;5052558;28;20025;-77
2023/05/01 02:20:09;;;;;;;6.93;4.47;;;12.30;99.90;;;;;;5052809;28;20103;-78
2023/05/01 02:22:35;;;;;;;6.63;4.32;;;12.20;99.90;;;;;;5053305;28;20106;-77
2023/05/01 02:25:02;;;;;;;6.03;4.32;;;12.20;99.90;;;;;;5052795;28;20060;-77
2023/05/01 02:27:36;;;;;;;7.35;4.70;;;12.20;99.90;;;;;;5069847;28;20196;-77
2023/05/01 02:30:04;;;;;;;7.30;4.68;;;12.20;99.90;;;;;;5055142;28;20036;-77
2023/05/01 02:32:30;;;;;;;10.43;4.97;;;12.10;99.90;;;;;;5055674;28;20119;-77
2023/05/01 02:34:56;;;;;;;7.05;4.57;;;12.10;99.90;;;;;;5072937;28;20047;-77
2023/05/01 02:37:22;;;;;;;7.13;4.57;;;12.10;99.90;;;;;;5055737;28;20024;-76
2023/05/01 02:39:48;;;;;;;10.05;5.30;;;12.10;99.90;;;;;;5073182;28;20111;-78
2023/05/01 02:42:16;;;;;;;6.97;4.70;;;12.20;99.90;;;;;;5054951;28;20446;-77
2023/05/01 02:44:49;;;;;;;7.10;4.72;;;12.20;99.90;;;;;;5073125;28;20024;-77
2023/05/01 02:47:18;;;;;;;9.50;4.25;;;12.10;99.90;;;;;;5072796;28;20523;-76
2023/05/01 02:49:46;;;;;;;6.55;4.55;;;12.00;99.90;;;;;;5055090;28;20041;-75
2023/05/01 02:52:14;;;;;;;7.32;4.35;;;11.90;99.90;;;;;;5054596;28;20063;-75
2023/05/01 02:54:42;;;;;;;6.13;4.20;;;12.00;99.90;;;;;;5073032;28;20032;-75
2023/05/01 02:57:09;;;;;;;6.03;4.53;;;12.00;99.90;;;;;;5054903;28;20029;-76
2023/05/01 02:59:35;;;;;;;6.55;4.18;;;12.00;99.90;;;;;;5055067;28;20043;-75
2023/05/01 03:02:00;;;;;;;6.50;4.00;;;12.00;99.90;;;;;;5054599;28;20029;-76
2023/05/01 03:04:26;;;;;;;5.13;3.72;;;12.00;99.90;;;;;;5073098;28;20025;-76
2023/05/01 03:06:53;;;;;;;6.57;4.05;;;12.00;99.90;;;;;;5072625;28;20020;-76
2023/05/01 03:09:19;;;;;;;7.47;4.40;;;12.00;99.90;;;;;;5055189;28;20479;-75
2023/05/01 03:11:45;;;;;;;7.07;3.97;;;11.90;99.90;;;;;;5055047;28;20029;-75
2023/05/01 03:14:11;;;;;;;6.25;4.47;;;11.90;99.90;;;;;;5054549;28;20486;-75
2023/05/01 03:16:36;;;;;;;6.20;4.05;;;11.90;99.90;;;;;;5072874;28;20100;-75
2023/05/01 03:19:02;;;;;;;6.43;3.92;;;11.80;99.90;;;;;;5072088;28;20024;-75
2023/05/01 03:21:28;;;;;;;5.72;3.78;;;11.90;99.90;;;;;;5055211;28;20029;-75
2023/05/01 03:23:53;;;;;;;5.95;3.80;;;11.90;99.90;;;;;;5054316;28;20132;-77
2023/05/01 03:26:19;;;;;;;4.88;3.90;;;11.90;99.90;;;;;;5072295;28;20024;-75
2023/05/01 03:28:45;;;;;;;6.07;3.70;;;11.90;99.90;;;;;;5056461;28;20101;-75
2023/05/01 03:31:11;;;;;;;5.85;3.45;;;12.00;99.90;;;;;;5075545;28;20067;-75
2023/05/01 03:33:36;;;;;;;5.50;4.07;;;11.90;99.90;;;;;;5058572;28;20390;-75
2023/05/01 03:36:04;;;;;;;7.47;3.63;;;12.00;99.90;;;;;;5057957;28;20027;-75
2023/05/01 03:38:30;;;;;;;6.10;3.58;;;12.00;99.90;;;;;;5058675;28;20104;-75
2023/05/01 03:40:57;;;;;;;5.40;3.30;;;11.90;99.90;;;;;;5057765;28;20456;-76
2023/05/01 03:43:23;;;;;;;6.35;3.40;;;11.90;99.90;;;;;;5076212;28;20021;-75
2023/05/01 03:45:50;;;;;;;3.50;3.17;;;11.90;99.90;;;;;;5058361;28;20057;-75
2023/05/01 03:48:16;;;;;;;4.70;3.45;;;11.90;99.90;;;;;;5075841;28;20509;-76
2023/05/01 03:50:42;;;;;;;3.83;3.20;;;11.90;99.90;;;;;;5057972;28;20064;-75
2023/05/01 03:53:07;;;;;;;4.75;3.65;;;12.00;99.90;;;;;;5075091;28;20040;-75
2023/05/01 03:55:33;;;;;;;5.57;3.03;;;11.90;99.90;;;;;;5075605;28;20039;-75
2023/05/01 03:57:59;;;;;;;6.57;3.30;;;12.00;99.90;;;;;;5056878;28;20490;-76
2023/05/01 04:00:25;;;;;;;5.35;3.03;;;11.90;99.90;;;;;;5075206;28;20028;-75
2023/05/01 04:02:51;;;;;;;6.22;3.03;;;11.90;99.90;;;;;;5057412;28;20093;-75
2023/05/01 04:05:17;;;;;;;4.55;3.22;;;11.90;99.90;;;;;;5056890;28;20028;-75
2023/05/01 04:07:43;;;;;;;4.20;3.20;;;11.90;99.90;;;;;;5075368;28;20508;-75
2023/05/01 04:10:09;;;;;;;5.10;3.25;;;11.90;99.90;;;;;;5056953;28;20032;-75
2023/05/01 04:12:35;;;;;;;5.65;3.35;;;11.90;99.90;;;;;;5057688;28;20032;-77
2023/05/01 04:15:01;;;;;;;5.60;3.33;;;11.90;99.90;;;;;;5056773;28;20086;-75
2023/05/01 04:17:27;;;;;;;4.32;3.28;;;11.90;99.90;;;;;;5075115;28;20021;-75
2023/05/01 04:19:54;;;;;;;5.20;2.90;;;11.90;99.90;;;;;;5075074;28;20099;-75
2023/05/01 04:22:21;;;;;;;4.90;3.15;;;11.80;99.90;;;;;;5056925;28;20025;-75
2023/05/01 04:24:47;;;;;;;4.18;2.95;;;11.80;99.90;;;;;;5075230;28;20052;-75
2023/05/01 04:27:12;;;;;;;4.43;2.90;;;11.80;99.90;;;;;;5056674;28;20036;-75
2023/05/01 04:29:38;;;;;;;4.78;3.05;;;11.80;99.90;;;;;;5057039;28;20563;-75
2023/05/01 04:32:03;;;;;;;3.25;2.80;;;11.80;99.90;;;;;;5074226;28;20029;-75
2023/05/01 04:34:29;;;;;;;4.00;2.92;;;11.80;99.90;;;;;;5056880;28;20028;-75
2023/05/01 04:36:56;;;;;;;4.20;2.83;;;11.70;99.90;;;;;;5054172;28;20376;-75
2023/05/01 04:39:22;;;;;;;4.15;2.85;;;11.70;99.90;;;;;;5091473;28;20063;-75
2023/05/01 04:41:48;;;;;;;3.20;2.60;;;11.80;99.90;;;;;;5069647;28;20048;-75
2023/05/01 04:44:14;;;;;;;5.18;2.95;;;11.80;99.90;;;;;;5055383;28;20468;-75
2023/05/01 04:46:39;;;;;;;3.65;2.70;;;11.80;99.90;;;;;;5074047;28;20417;-75
2023/05/01 04:49:05;;;;;;;3.75;2.72;;;11.80;99.90;;;;;;5088711;28;20071;-76
2023/05/01 04:51:30;;;;;;;4.07;2.85;;;11.80;99.90;;;;;;5089408;28;20095;-75
2023/05/01 04:53:56;;;;;;;3.45;2.83;;;11.80;99.90;;;;;;5073832;28;20485;-77
2023/05/01 04:56:23;;;;;;;3.63;2.60;;;11.80;99.90;;;;;;5054914;28;20016;-77
2023/05/01 04:58:49;;;;;;;5.15;2.67;;;11.90;99.90;;;;;;5068610;28;20051;-76
2023/05/01 05:01:14;;;;;;;3.40;2.70;;;11.90;99.90;;;;;;5076927;28;20513;-75
2023/05/01 05:03:40;;;;;;;2.50;2.30;;;11.90;99.90;;;;;;5075740;28;20028;-75
2023/05/01 05:06:05;;;;;;;3.15;2.78;;;11.90;99.90;;;;;;5092184;28;20039;-76
2023/05/01 05:08:31;;;;;;;3.45;2.78;;;11.90;99.90;;;;;;5084392;28;20090;-75
2023/05/01 05:10:58;;;;;;;4.95;3.00;;;12.00;99.90;;;;;;5094012;28;20386;-76
2023/05/01 05:13:24;;;;;;;4.45;2.88;;;12.00;99.90;;;;;;5075317;28;20063;-75
2023/05/01 05:15:50;;;;;;;3.63;2.80;;;12.00;99.90;;;;;;5058299;28;20036;-75
2023/05/01 05:18:16;;;;;;;4.38;2.83;;;12.00;99.90;;;;;;5081668;28;20028;-75
2023/05/01 05:20:41;;;;;;;4.78;2.67;;;12.00;99.90;;;;;;5085379;28;20040;-76
2023/05/01 05:23:07;;;;;;;2.90;2.60;;;12.10;99.90;;;;;;5077237;28;20107;-76
2023/05/01 05:25:32;;;;;;;6.40;2.60;;;12.10;99.90;;;;;;5089426;28;20098;-76
2023/05/01 05:27:59;;;;;;;4.15;2.42;;;12.10;99.90;;;;;;5087451;28;20056;-76
2023/05/01 05:30:25;;;;;;;3.92;2.67;;;12.20;99.90;;;;;;5093006;28;20036;-76
2023/05/01 05:32:51;;;;;;;5.22;2.42;;;12.30;99.90;;;;;;5090343;28;20115;-75
2023/05/01 05:35:16;;;;;;;5.07;2.80;;;12.30;99.90;;;;;;5094292;28;20056;-76
2023/05/01 05:37:42;;;;;;;3.80;2.50;;;12.40;99.90;;;;;;5080255;28;20441;-75
2023/05/01 05:40:08;;;;;;;3.33;2.80;;;12.50;99.90;;;;;;5073531;28;20115;-75
2023/05/01 05:42:34;;;;;;;3.10;2.75;;;12.50;99.90;;;;;;5083647;28;20039;-75
2023/05/01 05:44:59;;;;;;;3.17;2.63;;;12.60;99.90;;;;;;5092102;28;20024;-76
2023/05/01 05:47:25;;;;;;;4.43;2.70;;;12.60;99.90;;;;;;5092070;28;20124;-75
2023/05/01 05:49:51;;;;;;;4.35;2.50;;;12.70;99.90;;;;;;5055333;28;20028;-75
2023/05/01 05:52:16;;;;;;;4.65;2.53;;;12.70;99.90;;;;;;5054753;28;20071;-76
2023/05/01 05:54:42;;;;;;;3.28;2.53;;;12.80;99.90;;;;;;5055476;28;20103;-75
2023/05/01 05:57:08;;;;;;;3.00;2.40;;;12.80;99.90;;;;;;5073001;28;20457;-75
2023/05/01 05:59:34;;;;;;;3.65;2.30;;;12.90;99.90;;;;;;5055519;28;20068;-75
2023/05/01 06:01:59;;;;;;;2.75;2.33;;;12.90;99.90;;;;;;5072978;28;20024;-77
2023/05/01 06:04:25;;;;;;;3.85;2.80;;;12.90;99.90;;;;;;5064518;28;20031;-76
2023/05/01 06:06:51;;;;;;;2.55;2.35;;;12.90;99.90;;;;;;5077140;28;20031;-76
2023/05/01 06:09:17;;;;;;;6.50;2.60;;;12.90;99.90;;;;;;5052735;28;20044;-75
2023/05/01 06:11:43;;;;;;;4.38;2.78;;;12.90;99.90;;;;;;5042729;28;20020;-75
2023/05/01 06:14:09;;;;;;;3.53;2.75;;;12.90;99.90;;;;;;5074196;28;20047;-76
2023/05/01 06:16:35;;;;;;;4.63;2.78;;;12.90;99.90;;;;;;5081371;28;20025;-77
2023/05/01 06:19:01;;;;;;;3.85;2.70;;;12.90;99.90;;;;;;5076048;28;20031;-75
2023/05/01 06:21:26;;;;;;;4.80;2.63;;;13.00;99.90;;;;;;5083081;28;20119;-76
2023/05/01 06:23:52;;;;;;;2.58;2.22;;;13.00;99.90;;;;;;5079077;28;20468;-76
2023/05/01 06:26:18;;;;;;;3.22;2.25;;;13.00;99.90;;;;;;5092602;28;20334;-76
2023/05/01 06:28:43;;;;;;;3.03;2.60;;;13.00;99.90;;;;;;5094248;28;20109;-76
2023/05/01 06:31:09;;;;;;;5.13;2.80;;;13.10;99.90;;;;;;5084423;28;20497;-76
2023/05/01 06:33:34;;;;;;;3.65;2.63;;;13.00;99.90;;;;;;5078360;28;20021;-77
2023/05/01 06:36:01;;;;;;;2.95;2.38;;;13.00;99.90;;;;;;5085378;28;20035;-77
2023/05/01 06:38:26;;;;;;;2.53;2.30;;;13.00;99.90;;;;;;5069413;28;20023;-77
2023/05/01 06:40:52;;;;;;;4.95;2.92;;;13.00;99.90;;;;;;5073191;28;20033;-77
2023/05/01 06:43:18;;;;;;;4.55;2.60;;;13.00;99.90;;;;;;5054305;28;20028;-77
2023/05/01 06:45:44;;;;;;;4.85;2.80;;;13.00;99.90;;;;;;5076297;28;20016;-76
2023/05/01 06:48:10;;;;;;;3.50;2.70;;;13.00;99.90;;;;;;5083579;28;20098;-76
2023/05/01 06:50:36;;;;;;;5.07;2.33;;;13.10;99.90;;;;;;5071963;28;20037;-77
2023/05/01 06:53:01;;;;;;;3.30;2.50;;;13.10;99.90;;;;;;5058593;28;20529;-76
2023/05/01 06:55:30;;;;;;;3.95;2.50;;;13.20;99.90;;;;;;5075433;28;20025;-76
2023/05/01 06:57:58;;;;;;;3.45;2.63;;;13.30;99.90;;;;;;5076756;28;20031;-75
2023/05/01 07:00:24;;;;;;;3.38;2.55;;;13.20;99.90;;;;;;5091099;28;20064;-76
2023/05/01 07:02:50;;;;;;;4.05;2.30;;;13.20;99.90;;;;;;5080494;28;20093;-76
2023/05/01 07:05:15;;;;;;;3.08;2.33;;;13.30;99.90;;;;;;5075783;28;20051;-75
2023/05/01 07:07:41;;;;;;;3.67;2.30;;;13.40;99.90;;;;;;5076346;28;20024;-76
2023/05/01 07:10:07;;;;;;;3.03;2.22;;;13.40;99.90;;;;;;5089119;28;20381;-77
2023/05/01 07:12:32;;;;;;;3.97;2.28;;;13.50;99.90;;;;;;5076115;28;20029;-77
2023/05/01 07:14:58;;;;;;;2.30;2.08;;;13.50;99.90;;;;;;5058073;28;20033;-75
2023/05/01 07:17:24;;;;;;;4.28;2.70;;;13.50;99.90;;;;;;5078769;28;20020;-75
2023/05/01 07:19:50;;;;;;;3.28;2.53;;;13.60;99.90;;;;;;5091680;28;20020;-74
2023/05/01 07:22:15;;;;;;;4.55;2.67;;;13.50;99.90;;;;;;5058376;28;20416;-77
2023/05/01 07:24:41;;;;;;;4.90;2.60;;;13.60;99.90;;;;;;5070785;28;20031;-77
2023/05/01 07:27:06;;;;;;;3.08;2.50;;;13.60;99.90;;;;;;5095454;28;20035;-78
2023/05/01 07:29:32;;;;;;;5.05;2.65;;;13.70;99.90;;;;;;5088547;28;20098;-77
2023/05/01 07:31:58;;;;;;;5.80;2.80;;;13.70;99.90;;;;;;5061948;28;20116;-78
2023/05/01 07:34:24;;;;;;;3.20;2.70;;;13.80;99.90;;;;;;5059761;28;20033;-77
2023/05/01 07:36:49;;;;;;;3.88;2.70;;;13.90;99.90;;;;;;5056669;28;20099;-76
2023/05/01 07:39:16;;;;;;;5.47;2.83;;;13.90;99.90;;;;;;5062282;28;20044;-76
2023/05/01 07:41:42;;;;;;;3.63;2.60;;;14.00;99.90;;;;;;5050225;28;20021;-77
2023/05/01 07:44:08;;;;;;;3.67;2.75;;;14.10;99.90;;;;;;5054448;28;20374;-79
2023/05/01 07:46:35;;;;;;;3.60;2.70;;;14.10;99.90;;;;;;5055700;28;20482;-79
2023/05/01 07:49:00;;;;;;;3.45;2.65;;;14.10;99.90;;;;;;5069626;28;20036;-80
2023/05/01 07:51:26;;;;;;;3.20;2.72;;;14.20;99.90;;;;;;5065959;28;20013;-76
2023/05/01 07:53:51;;;;;;;3.42;2.22;;;14.20;99.90;;;;;;5064451;28;20025;-76
2023/05/01 07:56:17;;;;;;;4.72;2.88;;;14.30;99.90;;;;;;5056660;28;20021;-74
2023/05/01 07:58:43;;;;;;;3.40;3.00;;;14.40;99.90;;;;;;5061334;28;20032;-74
2023/05/01 08:01:08;;;;;;;4.38;2.92;;;14.60;99.90;;;;;;5068899;28;20043;-74
2023/05/01 08:03:34;;;;;;;3.85;2.70;;;14.70;99.90;;;;;;5060831;28;20429;-75
2023/05/01 08:06:00;;;;;;;3.90;2.90;;;14.70;99.90;;;;;;5067446;28;20013;-74
2023/05/01 08:08:25;;;;;;;4.93;2.90;;;14.70;99.90;;;;;;5056730;28;20017;-74
2023/05/01 08:10:51;;;;;;;3.65;2.88;;;14.70;99.90;;;;;;5061709;28;20033;-73
2023/05/01 08:13:17;;;;;;;6.57;3.30;;;14.70;99.90;;;;;;5058077;28;20029;-74
2023/05/01 08:15:47;;;;;;;4.78;2.83;;;14.70;99.90;;;;;;5069620;28;20021;-75
2023/05/01 08:18:18;;;;;;;3.83;2.83;;;14.80;99.90;;;;;;5053829;28;20225;-74
2023/05/01 08:20:45;;;;;;;4.63;3.25;;;15.00;99.90;;;;;;5060324;28;20037;-74
2023/05/01 08:23:11;;;;;;;5.32;3.50;;;15.00;99.90;;;;;;5055559;28;20385;-74
2023/05/01 08:25:36;;;;;;;4.07;3.50;;;15.00;99.90;;;;;;5054460;28;20112;-74
2023/05/01 08:28:02;;;;;;;6.22;3.30;;;15.00;99.90;;;;;;5063531;28;20051;-74
2023/05/01 08:30:28;;;;;;;5.90;3.42;;;15.00;99.90;;;;;;5082584;28;20032;-73
2023/05/01 08:32:53;;;;;;;4.75;3.55;;;15.00;99.90;;;;;;5084396;28;20029;-74
2023/05/01 08:35:19;;;;;;;3.85;3.25;;;15.10;99.90;;;;;;5056916;28;20183;-73
2023/05/01 08:37:45;;;;;;;5.53;3.45;;;15.10;99.90;;;;;;5060123;28;20028;-74
2023/05/01 08:40:11;;;;;;;4.07;3.10;;;15.10;99.90;;;;;;5087123;28;20027;-74
2023/05/01 08:42:37;;;;;;;4.55;3.42;;;15.20;99.90;;;;;;5070586;28;20024;-73
2023/05/01 08:45:07;;;;;;;3.97;3.55;;;15.10;99.90;;;;;;5070430;28;20028;-74
2023/05/01 08:47:37;;;;;;;4.40;3.50;;;15.10;99.90;;;;;;5086602;28;20028;-74
2023/05/01 08:50:03;;;;;;;4.45;3.33;;;15.10;99.90;;;;;;5070828;28;20070;-72
2023/05/01 08:52:31;;;;;;;4.55;3.33;;;15.20;99.90;;;;;;5076722;28;20028;-73
2023/05/01 08:54:58;;;;;;;4.65;3.58;;;15.30;99.90;;;;;;5055251;28;20028;-74
2023/05/01 08:57:26;;;;;;;6.35;3.67;;;15.40;99.90;;;;;;5077090;28;20043;-73
2023/05/01 08:59:53;;;;;;;5.65;3.63;;;15.40;99.90;;;;;;5061306;28;20494;-73
2023/05/01 09:02:23;;;;;;;5.00;3.65;;;15.50;99.90;;;;;;5076885;28;20035;-73
2023/05/01 09:04:50;;;;;;;9.15;4.20;;;15.50;99.90;;;;;;5079603;28;20119;-73
2023/05/01 09:07:16;;;;;;;7.05;3.40;;;15.50;99.90;;;;;;5058134;28;20131;-73
2023/05/01 09:09:43;;;;;;;4.55;3.60;;;15.50;99.90;;;;;;5062466;28;20186;-74
2023/05/01 09:12:14;;;;;;;4.78;3.28;;;15.50;99.90;;;;;;5088388;28;20020;-75
2023/05/01 09:14:39;;;;;;;5.57;3.78;;;15.40;99.90;;;;;;5080196;28;20047;-74
2023/05/01 09:17:05;;;;;;;6.30;3.92;;;15.40;99.90;;;;;;5083540;28;20392;-75
2023/05/01 09:19:31;;;;;;;5.57;4.30;;;15.40;99.90;;;;;;5072849;28;20071;-74
2023/05/01 09:21:56;;;;;;;5.60;3.70;;;15.50;99.90;;;;;;5085267;28;20031;-74
2023/05/01 09:24:24;;;;;;;5.60;3.63;;;15.50;99.90;;;;;;5062063;28;20020;-73
2023/05/01 09:26:51;;;;;;;5.85;3.78;;;15.60;99.90;;;;;;5088591;28;20107;-75
2023/05/01 09:29:35;;;;;;;4.45;3.20;;;15.70;99.90;;;;;;5085815;28;20055;-74
2023/05/01 09:32:15;;;;;;;6.45;4.10;;;15.60;99.90;;;;;;5059663;28;20020;-73
2023/05/01 09:34:40;;;;;;;4.60;3.55;;;15.60;99.90;;;;;;5066285;28;20034;-74
2023/05/01 09:37:06;;;;;;;13.43;3.55;;;15.60;99.90;;;;;;5081289;28;20388;-75
2023/05/01 09:39:32;;;;;;;4.93;3.47;;;15.70;99.90;;;;;;5091275;28;20032;-74
2023/05/01 09:41:57;;;;;;;7.65;4.10;;;15.70;99.90;;;;;;5090654;28;20442;-73
2023/05/01 09:44:24;;;;;;;6.20;3.85;;;15.70;99.90;;;;;;5058214;28;20024;-75
2023/05/01 09:46:49;;;;;;;6.43;3.90;;;15.60;99.90;;;;;;5081784;28;20196;-77
2023/05/01 09:49:15;;;;;;;6.53;3.58;;;15.60;99.90;;;;;;5067716;28;20456;-78
2023/05/01 09:51:42;;;;;;;4.03;3.42;;;15.60;99.90;;;;;;5063613;28;20024;-77
2023/05/01 09:54:18;;;;;;;6.05;4.03;;;15.60;99.90;;;;;;5067692;28;20035;-77
2023/05/01 09:56:47;;;;;;;5.60;3.42;;;15.60;99.90;;;;;;5049386;28;20028;-78
2023/05/01 09:59:19;;;;;;;9.43;4.03;;;15.60;99.90;;;;;;5066814;28;20114;-78
2023/05/01 10:01:46;;;;;;;4.47;3.38;;;15.50;99.90;;;;;;5053286;28;20032;-77
2023/05/01 10:04:13;;;;;;;5.85;3.50;;;15.50;99.90;;;;;;5054764;28;20025;-77
2023/05/01 10:06:39;;;;;;;4.63;3.50;;;15.60;99.90;;;;;;5055960;28;20021;-78
2023/05/01 10:09:06;;;;;;;5.57;4.32;;;15.70;99.90;;;;;;5061691;28;20024;-76
2023/05/01 10:11:51;;;;;;;8.05;4.50;;;15.80;99.90;;;;;;5056327;28;20056;-78
2023/05/01 10:14:16;;;;;;;9.20;4.10;;;15.90;99.90;;;;;;5072594;28;20020;-77
2023/05/01 10:16:43;;;;;;;5.43;3.72;;;15.90;99.90;;;;;;5065748;28;20028;-79
2023/05/01 10:19:09;;;;;;;4.55;3.72;;;16.00;99.90;;;;;;5072344;28;20035;-78
2023/05/01 10:21:35;;;;;;;4.53;3.78;;;16.00;99.90;;;;;;5072648;28;20020;-78
2023/05/01 10:24:05;;;;;;;6.50;4.10;;;16.00;99.90;;;;;;5054907;28;20103;-78
2023/05/01 10:26:35;;;;;;;5.95;4.45;;;15.90;99.90;;;;;;5071777;28;20016;-78
2023/05/01 10:29:02;;;;;;;7.13;4.65;;;16.00;99.90;;;;;;5072190;28;20063;-79
2023/05/01 10:31:31;;;;;;;5.70;4.20;;;16.00;99.90;;;;;;5053960;28;20024;-79
2023/05/01 10:33:57;;;;;;;6.90;4.60;;;16.20;99.90;;;;;;5074532;28;20473;-77
2023/05/01 10:36:23;;;;;;;7.38;4.90;;;16.30;99.90;;;;;;5059129;28;20017;-78
2023/05/01 10:38:49;;;;;;;8.52;4.75;;;16.40;99.90;;;;;;5056839;28;20084;-78
2023/05/01 10:41:17;;;;;;;4.82;4.25;;;16.30;99.90;;;;;;5054755;28;20039;-79
2023/05/01 10:43:43;;;;;;;5.85;4.40;;;16.40;99.90;;;;;;5075746;28;20024;-79
2023/05/01 10:46:08;;;;;;;7.00;4.97;;;16.40;99.90;;;;;;5081538;28;20481;-77
2023/05/01 10:48:41;;;;;;;5.60;4.38;;;16.50;99.90;;;;;;5079367;28;20033;-76
2023/05/01 10:51:14;;;;;;;19.45;11.60;;;16.50;99.90;;;;;;5087375;28;20024;-75
2023/05/01 10:53:41;;;;;;;15.75;10.32;;;16.60;99.90;;;;;;5070223;28;20032;-74
2023/05/01 10:56:31;;;;;;;8.77;5.60;;;16.90;99.90;;;;;;5053330;28;20362;-76
2023/05/01 10:59:03;;;;;;;7.38;5.00;;;17.00;99.90;;;;;;5054657;28;20028;-75
2023/05/01 11:01:36;;;;;;;7.57;4.85;;;17.00;99.90;;;;;;5069482;28;20028;-75
2023/05/01 11:04:07;;;;;;;5.43;4.50;;;17.00;99.90;;;;;;5085445;28;20024;-74
2023/05/01 11:06:34;;;;;;;6.47;4.63;;;16.90;99.90;;;;;;5079811;28;20025;-75
2023/05/01 11:09:01;;;;;;;8.25;5.80;;;17.00;99.90;;;;;;5064847;28;20342;-75
2023/05/01 11:11:26;;;;;;;6.90;4.47;;;16.80;99.90;;;;;;5079507;28;20028;-75
2023/05/01 11:14:00;;;;;;;8.43;5.15;;;16.80;99.90;;;;;;5083900;28;20362;-75
2023/05/01 11:16:38;;;;;;;6.80;4.88;;;16.80;99.90;;;;;;5073498;28;20021;-74
2023/05/01 11:19:04;;;;;;;5.97;4.75;;;16.90;99.90;;;;;;5053813;28;20052;-75
2023/05/01 11:21:33;;;;;;;6.00;4.57;;;16.90;99.90;;;;;;5053306;28;20124;-76
2023/05/01 11:23:59;;;;;;;6.10;5.18;;;17.00;99.90;;;;;;5080403;28;20399;-75
2023/05/01 11:26:26;;;;;;;8.45;4.63;;;17.10;99.90;;;;;;5072754;28;20148;-75
2023/05/01 11:28:54;;;;;;;5.82;4.30;;;17.20;99.90;;;;;;5085536;28;20391;-75
2023/05/01 11:31:20;;;;;;;9.30;5.30;;;17.20;99.90;;;;;;5080582;28;20036;-74
2023/05/01 11:33:46;;;;;;;7.55;5.57;;;17.30;99.90;;;;;;5060254;28;20137;-76
2023/05/01 11:36:12;;;;;;;6.85;5.38;;;17.30;99.90;;;;;;5077798;28;20477;-76
2023/05/01 11:38:49;;;;;;;7.18;5.10;;;17.30;99.90;;;;;;5083189;28;20027;-76
2023/05/01 11:41:20;;;;;;;9.43;4.75;;;17.40;99.90;;;;;;5080335;28;20351;-77
2023/05/01 11:43:54;;;;;;;7.40;4.75;;;17.40;99.90;;;;;;5069699;28;20476;-77
2023/05/01 11:46:27;;;;;;;6.50;4.90;;;17.40;99.90;;;;;;5052903;28;20101;-77
2023/05/01 11:48:58;;;;;;;7.10;4.35;;;17.30;99.90;;;;;;5054115;28;20021;-77
2023/05/01 11:51:25;;;;;;;5.63;4.28;;;17.30;99.90;;;;;;5082045;28;20027;-75
2023/05/01 11:53:59;;;;;;;7.00;4.75;;;17.40;99.90;;;;;;5057550;28;20036;-77
2023/05/01 11:56:25;;;;;;;7.30;5.43;;;17.50;99.90;;;;;;5074714;28;20028;-77
2023/05/01 11:58:53;;;;;;;8.77;5.57;;;17.40;99.90;;;;;;5087220;28;20116;-77
2023/05/01 12:01:18;;;;;;;7.47;5.28;;;17.40;99.90;;;;;;5064960;28;20028;-79
2023/05/01 12:03:44;;;;;;;7.28;5.07;;;17.40;99.90;;;;;;5057662;28;20021;-78
2023/05/01 12:06:14;;;;;;;7.80;5.25;;;17.40;99.90;;;;;;5089393;28;20456;-78
2023/05/01 12:08:47;;;;;;;7.10;5.40;;;17.40;99.90;;;;;;5066881;28;20032;-77
2023/05/01 12:11:13;;;;;;;8.98;5.78;;;17.30;99.90;;;;;;5083839;28;20027;-77
2023/05/01 12:13:40;;;;;;;6.78;5.20;;;17.20;99.90;;;;;;5069111;28;20024;-77
2023/05/01 12:16:06;;;;;;;6.95;4.93;;;17.20;99.90;;;;;;5095548;28;20020;-77
2023/05/01 12:18:32;;;;;;;6.85;4.85;;;17.10;99.90;;;;;;5091052;28;20674;-76
2023/05/01 12:20:57;;;;;;;6.00;4.88;;;17.00;99.90;;;;;;5094368;28;20118;-79
2023/05/01 12:23:39;;;;;;;7.78;4.95;;;16.90;99.90;;;;;;5089355;28;20116;-77
2023/05/01 12:26:18;;;;;;;8.93;4.30;;;16.90;99.90;;;;;;5088568;28;20867;-77
2023/05/01 12:28:57;;;;;;;5.55;4.40;;;16.80;99.90;;;;;;5080488;28;20051;-77
2023/05/01 12:31:24;;;;;;;5.07;4.13;;;16.80;99.90;;;;;;5076018;28;20073;-77
2023/05/01 12:34:04;;;;;;;7.47;4.07;;;16.90;99.90;;;;;;5061750;28;20127;-77
2023/05/01 12:36:31;;;;;;;6.10;4.20;;;17.00;99.90;;;;;;5065733;28;20028;-78
2023/05/01 12:39:09;;;;;;;6.50;4.65;;;17.00;99.90;;;;;;5064141;28;20039;-77
2023/05/01 12:41:37;;;;;;;6.72;4.32;;;17.10;99.90;;;;;;5072926;28;20049;-77
2023/05/01 12:44:18;;;;;;;6.57;4.32;;;17.20;99.90;;;;;;5056645;28;20032;-77
2023/05/01 12:46:46;;;;;;;7.25;5.10;;;17.20;99.90;;;;;;5068657;28;20043;-77
2023/05/01 12:49:19;;;;;;;7.10;5.07;;;17.30;99.90;;;;;;5079087;28;20035;-77